sensor_id;sensor_type;location;lat;lon;timestamp;pressure;altitude;pressure_sealevel;temperature;humidity
38033;BME280;23841;48.524;1.342;2023-07-29T00:00:39;98626.72;;;22.62;58.81
38033;BME280;23841;48.524;1.342;2023-07-29T00:03:05;98633.81;;;22.63;58.82
38033;BME280;23841;48.524;1.342;2023-07-29T00:05:30;98633.81;;;22.63;58.77
38033;BME280;23841;48.524;1.342;2023-07-29T00:07:56;98640.25;;;22.62;59.07
38033;BME280;23841;48.524;1.342;2023-07-29T00:10:22;98645.66;;;22.62;59.19
38033;BME280;23841;48.524;1.342;2023-07-29T00:12:47;98642.94;;;22.62;59.00
38033;BME280;23841;48.524;1.342;2023-07-29T00:15:13;98645.78;;;22.60;58.97
38033;BME280;23841;48.524;1.342;2023-07-29T00:17:38;98641.22;;;22.61;58.77
38033;BME280;23841;48.524;1.342;2023-07-29T00:20:04;98635.81;;;22.61;58.74
38033;BME280;23841;48.524;1.342;2023-07-29T00:22:30;98626.94;;;22.59;59.07
38033;BME280;23841;48.524;1.342;2023-07-29T00:24:56;98634.09;;;22.60;58.81
38033;BME280;23841;48.524;1.342;2023-07-29T00:27:23;98635.94;;;22.59;59.03
38033;BME280;23841;48.524;1.342;2023-07-29T00:29:48;98626.09;;;22.58;58.96
38033;BME280;23841;48.524;1.342;2023-07-29T00:32:14;98622.41;;;22.59;58.77
38033;BME280;23841;48.524;1.342;2023-07-29T00:34:39;98625.25;;;22.58;58.92
38033;BME280;23841;48.524;1.342;2023-07-29T00:37:04;98627.94;;;22.58;58.75
38033;BME280;23841;48.524;1.342;2023-07-29T00:39:31;98633.38;;;22.58;58.79
38033;BME280;23841;48.524;1.342;2023-07-29T00:41:57;98632.47;;;22.57;58.85
38033;BME280;23841;48.524;1.342;2023-07-29T00:44:22;98625.25;;;22.58;58.89
38033;BME280;23841;48.524;1.342;2023-07-29T00:46:50;98623.53;;;22.57;58.88
38033;BME280;23841;48.524;1.342;2023-07-29T00:49:18;98627.19;;;22.56;58.80
38033;BME280;23841;48.524;1.342;2023-07-29T00:51:43;98620.81;;;22.57;58.97
38033;BME280;23841;48.524;1.342;2023-07-29T00:54:09;98612.81;;;22.55;58.84
38033;BME280;23841;48.524;1.342;2023-07-29T00:56:34;98621.78;;;22.56;58.98
38033;BME280;23841;48.524;1.342;2023-07-29T00:59:01;98620.09;;;22.55;58.90
38033;BME280;23841;48.524;1.342;2023-07-29T01:01:30;98618.22;;;22.55;58.92
38033;BME280;23841;48.524;1.342;2023-07-29T01:03:57;98623.78;;;22.54;58.85
38033;BME280;23841;48.524;1.342;2023-07-29T01:14:59;98632.88;;;22.53;58.97
38033;BME280;23841;48.524;1.342;2023-07-29T01:17:31;98628.44;;;22.52;58.60
38033;BME280;23841;48.524;1.342;2023-07-29T01:20:07;98609.50;;;22.52;58.74
38033;BME280;23841;48.524;1.342;2023-07-29T01:22:34;98603.22;;;22.51;58.85
38033;BME280;23841;48.524;1.342;2023-07-29T01:25:00;98596.97;;;22.50;58.90
38033;BME280;23841;48.524;1.342;2023-07-29T01:27:26;98597.81;;;22.51;58.71
38033;BME280;23841;48.524;1.342;2023-07-29T01:29:56;98601.50;;;22.50;58.82
38033;BME280;23841;48.524;1.342;2023-07-29T01:35:24;98605.19;;;22.49;58.72
38033;BME280;23841;48.524;1.342;2023-07-29T01:38:23;98606.06;;;22.49;58.68
38033;BME280;23841;48.524;1.342;2023-07-29T01:40:48;98617.75;;;22.50;58.69
38033;BME280;23841;48.524;1.342;2023-07-29T01:43:14;98632.25;;;22.49;58.58
38033;BME280;23841;48.524;1.342;2023-07-29T01:45:40;98634.97;;;22.49;58.88
38033;BME280;23841;48.524;1.342;2023-07-29T01:48:06;98628.69;;;22.48;58.94
38033;BME280;23841;48.524;1.342;2023-07-29T01:50:32;98635.97;;;22.48;58.55
38033;BME280;23841;48.524;1.342;2023-07-29T01:52:58;98620.56;;;22.48;58.66
38033;BME280;23841;48.524;1.342;2023-07-29T01:55:24;98607.19;;;22.47;58.84
38033;BME280;23841;48.524;1.342;2023-07-29T01:57:49;98601.75;;;22.47;58.64
38033;BME280;23841;48.524;1.342;2023-07-29T02:00:16;98610.84;;;22.46;58.92
38033;BME280;23841;48.524;1.342;2023-07-29T02:02:42;98612.59;;;22.47;58.68
38033;BME280;23841;48.524;1.342;2023-07-29T02:05:07;98604.59;;;22.45;58.69
38033;BME280;23841;48.524;1.342;2023-07-29T02:07:33;98615.41;;;22.45;58.82
38033;BME280;23841;48.524;1.342;2023-07-29T02:09:58;98614.53;;;22.45;58.72
38033;BME280;23841;48.524;1.342;2023-07-29T02:12:24;98601.00;;;22.45;58.67
38033;BME280;23841;48.524;1.342;2023-07-29T02:14:49;98602.88;;;22.44;58.91
38033;BME280;23841;48.524;1.342;2023-07-29T02:17:15;98601.16;;;22.43;58.81
38033;BME280;23841;48.524;1.342;2023-07-29T02:19:40;98611.00;;;22.44;58.70
38033;BME280;23841;48.524;1.342;2023-07-29T02:22:06;98610.28;;;22.42;58.86
38033;BME280;23841;48.524;1.342;2023-07-29T02:24:31;98605.84;;;22.41;58.78
38033;BME280;23841;48.524;1.342;2023-07-29T02:26:56;98609.38;;;22.42;58.53
38033;BME280;23841;48.524;1.342;2023-07-29T02:29:22;98614.81;;;22.42;58.60
38033;BME280;23841;48.524;1.342;2023-07-29T02:31:48;98605.97;;;22.40;58.77
38033;BME280;23841;48.524;1.342;2023-07-29T02:34:13;98613.94;;;22.41;58.91
38033;BME280;23841;48.524;1.342;2023-07-29T02:36:39;98612.22;;;22.40;58.79
38033;BME280;23841;48.524;1.342;2023-07-29T02:39:04;98623.03;;;22.40;58.88
38033;BME280;23841;48.524;1.342;2023-07-29T02:41:30;98622.19;;;22.40;58.76
38033;BME280;23841;48.524;1.342;2023-07-29T02:43:55;98619.63;;;22.38;58.66
38033;BME280;23841;48.524;1.342;2023-07-29T02:46:21;98624.16;;;22.38;58.63
38033;BME280;23841;48.524;1.342;2023-07-29T02:48:46;98617.75;;;22.39;58.88
38033;BME280;23841;48.524;1.342;2023-07-29T02:51:12;98612.47;;;22.37;58.77
38033;BME280;23841;48.524;1.342;2023-07-29T02:53:37;98614.44;;;22.35;58.74
38033;BME280;23841;48.524;1.342;2023-07-29T02:56:04;98616.16;;;22.36;58.69
38033;BME280;23841;48.524;1.342;2023-07-29T02:58:29;98626.00;;;22.37;58.73
38033;BME280;23841;48.524;1.342;2023-07-29T03:01:04;98621.56;;;22.36;58.55
38033;BME280;23841;48.524;1.342;2023-07-29T03:03:31;98629.69;;;22.36;58.63
38033;BME280;23841;48.524;1.342;2023-07-29T03:06:08;98623.44;;;22.36;58.55
38033;BME280;23841;48.524;1.342;2023-07-29T03:08:34;98631.56;;;22.36;58.63
38033;BME280;23841;48.524;1.342;2023-07-29T03:11:09;98628.84;;;22.36;58.77
38033;BME280;23841;48.524;1.342;2023-07-29T03:13:35;98619.84;;;22.35;58.52
38033;BME280;23841;48.524;1.342;2023-07-29T03:16:09;98615.31;;;22.36;58.92
38033;BME280;23841;48.524;1.342;2023-07-29T03:18:34;98625.25;;;22.35;58.54
38033;BME280;23841;48.524;1.342;2023-07-29T03:21:00;98622.69;;;22.33;58.42
38033;BME280;23841;48.524;1.342;2023-07-29T03:23:28;98634.38;;;22.34;58.55
38033;BME280;23841;48.524;1.342;2023-07-29T03:25:55;98636.31;;;22.32;58.74
38033;BME280;23841;48.524;1.342;2023-07-29T03:28:28;98641.72;;;22.32;58.55
38033;BME280;23841;48.524;1.342;2023-07-29T03:30:57;98631.78;;;22.32;58.40
38033;BME280;23841;48.524;1.342;2023-07-29T03:33:24;98639.97;;;22.31;58.45
38033;BME280;23841;48.524;1.342;2023-07-29T03:35:50;98640.88;;;22.31;58.72
38033;BME280;23841;48.524;1.342;2023-07-29T03:38:15;98635.47;;;22.31;58.37
38033;BME280;23841;48.524;1.342;2023-07-29T03:40:41;98645.41;;;22.31;58.33
38033;BME280;23841;48.524;1.342;2023-07-29T03:43:07;98636.44;;;22.30;58.74
38033;BME280;23841;48.524;1.342;2023-07-29T03:45:34;98636.44;;;22.30;58.40
38033;BME280;23841;48.524;1.342;2023-07-29T03:47:59;98631.16;;;22.29;58.44
38033;BME280;23841;48.524;1.342;2023-07-29T03:50:25;98632.88;;;22.30;58.52
38033;BME280;23841;48.524;1.342;2023-07-29T03:52:51;98631.16;;;22.29;58.56
38033;BME280;23841;48.524;1.342;2023-07-29T03:55:16;98629.28;;;22.29;58.54
38033;BME280;23841;48.524;1.342;2023-07-29T03:57:42;98630.31;;;22.28;58.53
38033;BME280;23841;48.524;1.342;2023-07-29T04:00:07;98624.88;;;22.28;58.34
38033;BME280;23841;48.524;1.342;2023-07-29T04:02:34;98629.41;;;22.28;58.18
38033;BME280;23841;48.524;1.342;2023-07-29T04:05:03;98629.53;;;22.26;58.35
38033;BME280;23841;48.524;1.342;2023-07-29T04:07:28;98626.00;;;22.26;58.48
38033;BME280;23841;48.524;1.342;2023-07-29T04:09:54;98638.53;;;22.27;58.26
38033;BME280;23841;48.524;1.342;2023-07-29T04:12:19;98628.69;;;22.26;58.07
38033;BME280;23841;48.524;1.342;2023-07-29T04:14:47;98638.53;;;22.27;58.22
38033;BME280;23841;48.524;1.342;2023-07-29T04:17:12;98646.75;;;22.25;58.45
38033;BME280;23841;48.524;1.342;2023-07-29T04:19:38;98645.06;;;22.24;58.50
38033;BME280;23841;48.524;1.342;2023-07-29T04:22:03;98645.91;;;22.25;58.21
38033;BME280;23841;48.524;1.342;2023-07-29T04:24:29;98642.22;;;22.26;58.46
38033;BME280;23841;48.524;1.342;2023-07-29T04:26:54;98645.91;;;22.25;58.15
38033;BME280;23841;48.524;1.342;2023-07-29T04:29:20;98655.00;;;22.24;58.34
38033;BME280;23841;48.524;1.342;2023-07-29T04:31:46;98640.63;;;22.23;58.10
38033;BME280;23841;48.524;1.342;2023-07-29T04:34:11;98650.59;;;22.23;58.31
38033;BME280;23841;48.524;1.342;2023-07-29T04:36:36;98644.31;;;22.22;58.11
38033;BME280;23841;48.524;1.342;2023-07-29T04:39:02;98637.06;;;22.23;58.30
38033;BME280;23841;48.524;1.342;2023-07-29T04:41:27;98642.56;;;22.21;58.23
38033;BME280;23841;48.524;1.342;2023-07-29T04:43:53;98638.16;;;22.20;58.23
38033;BME280;23841;48.524;1.342;2023-07-29T04:46:18;98644.56;;;22.19;58.07
38033;BME280;23841;48.524;1.342;2023-07-29T04:48:44;98645.28;;;22.21;58.00
38033;BME280;23841;48.524;1.342;2023-07-29T04:51:09;98648.09;;;22.20;58.22
38033;BME280;23841;48.524;1.342;2023-07-29T04:53:34;98647.25;;;22.19;58.25
38033;BME280;23841;48.524;1.342;2023-07-29T04:56:02;98657.09;;;22.20;58.13
38033;BME280;23841;48.524;1.342;2023-07-29T04:58:28;98657.22;;;22.19;58.36
38033;BME280;23841;48.524;1.342;2023-07-29T05:00:55;98658.22;;;22.17;58.38
38033;BME280;23841;48.524;1.342;2023-07-29T05:03:20;98660.03;;;22.17;58.03
38033;BME280;23841;48.524;1.342;2023-07-29T05:05:46;98658.22;;;22.17;58.14
38033;BME280;23841;48.524;1.342;2023-07-29T05:08:11;98660.91;;;22.17;58.26
38033;BME280;23841;48.524;1.342;2023-07-29T05:10:37;98655.50;;;22.17;58.38
38033;BME280;23841;48.524;1.342;2023-07-29T05:13:02;98652.91;;;22.16;58.39
38033;BME280;23841;48.524;1.342;2023-07-29T05:15:28;98646.63;;;22.15;58.21
38033;BME280;23841;48.524;1.342;2023-07-29T05:17:53;98646.63;;;22.15;58.18
38033;BME280;23841;48.524;1.342;2023-07-29T05:20:19;98642.22;;;22.14;58.17
38033;BME280;23841;48.524;1.342;2023-07-29T05:22:44;98650.22;;;22.16;58.08
38033;BME280;23841;48.524;1.342;2023-07-29T05:25:09;98644.06;;;22.14;58.35
38033;BME280;23841;48.524;1.342;2023-07-29T05:27:35;98652.16;;;22.14;58.29
38033;BME280;23841;48.524;1.342;2023-07-29T05:30:00;98638.66;;;22.14;58.09
38033;BME280;23841;48.524;1.342;2023-07-29T05:32:26;98644.06;;;22.14;58.41
38033;BME280;23841;48.524;1.342;2023-07-29T05:34:51;98640.50;;;22.13;58.12
38033;BME280;23841;48.524;1.342;2023-07-29T05:37:17;98645.06;;;22.13;58.29
38033;BME280;23841;48.524;1.342;2023-07-29T05:39:42;98652.28;;;22.12;58.36
38033;BME280;23841;48.524;1.342;2023-07-29T05:42:07;98652.28;;;22.12;58.20
38033;BME280;23841;48.524;1.342;2023-07-29T05:44:33;98654.16;;;22.12;58.11
38033;BME280;23841;48.524;1.342;2023-07-29T05:46:58;98649.72;;;22.11;58.12
38033;BME280;23841;48.524;1.342;2023-07-29T05:49:24;98655.97;;;22.11;58.27
38033;BME280;23841;48.524;1.342;2023-07-29T05:51:49;98666.78;;;22.11;58.08
38033;BME280;23841;48.524;1.342;2023-07-29T05:54:18;98664.09;;;22.11;58.23
38033;BME280;23841;48.524;1.342;2023-07-29T05:56:43;98671.22;;;22.12;58.04
38033;BME280;23841;48.524;1.342;2023-07-29T05:59:09;98670.50;;;22.10;58.42
38033;BME280;23841;48.524;1.342;2023-07-29T06:01:34;98676.75;;;22.11;58.11
38033;BME280;23841;48.524;1.342;2023-07-29T06:04:00;98670.50;;;22.10;58.31
38033;BME280;23841;48.524;1.342;2023-07-29T06:06:26;98672.44;;;22.08;58.48
38033;BME280;23841;48.524;1.342;2023-07-29T06:08:52;98676.88;;;22.09;58.38
38033;BME280;23841;48.524;1.342;2023-07-29T06:11:17;98673.22;;;22.10;58.08
38033;BME280;23841;48.524;1.342;2023-07-29T06:13:42;98682.41;;;22.08;58.12
38033;BME280;23841;48.524;1.342;2023-07-29T06:16:08;98689.56;;;22.09;58.44
38033;BME280;23841;48.524;1.342;2023-07-29T06:18:33;98688.69;;;22.08;58.32
38033;BME280;23841;48.524;1.342;2023-07-29T06:20:59;98691.38;;;22.08;58.31
38033;BME280;23841;48.524;1.342;2023-07-29T06:23:24;98690.53;;;22.08;58.24
38033;BME280;23841;48.524;1.342;2023-07-29T06:25:50;98705.78;;;22.09;58.60
38033;BME280;23841;48.524;1.342;2023-07-29T06:28:15;98701.34;;;22.08;58.37
38033;BME280;23841;48.524;1.342;2023-07-29T06:30:40;98693.22;;;22.08;58.38
38033;BME280;23841;48.524;1.342;2023-07-29T06:33:06;98694.34;;;22.05;58.25
38033;BME280;23841;48.524;1.342;2023-07-29T06:35:32;98694.34;;;22.05;58.65
38033;BME280;23841;48.524;1.342;2023-07-29T06:37:57;98697.03;;;22.05;58.37
38033;BME280;23841;48.524;1.342;2023-07-29T06:40:23;98704.19;;;22.06;58.45
38033;BME280;23841;48.524;1.342;2023-07-29T06:42:48;98689.78;;;22.06;58.41
38033;BME280;23841;48.524;1.342;2023-07-29T06:45:13;98689.78;;;22.06;58.53
38033;BME280;23841;48.524;1.342;2023-07-29T06:47:40;98693.47;;;22.05;58.63
38033;BME280;23841;48.524;1.342;2023-07-29T06:50:06;98697.03;;;22.05;58.52
38033;BME280;23841;48.524;1.342;2023-07-29T06:52:32;98693.56;;;22.03;58.38
38033;BME280;23841;48.524;1.342;2023-07-29T06:54:57;98703.41;;;22.04;58.58
38033;BME280;23841;48.524;1.342;2023-07-29T06:57:23;98698.00;;;22.04;58.30
38033;BME280;23841;48.524;1.342;2023-07-29T06:59:48;98700.72;;;22.04;58.36
38033;BME280;23841;48.524;1.342;2023-07-29T07:02:14;98694.47;;;22.04;58.50
38033;BME280;23841;48.524;1.342;2023-07-29T07:04:39;98698.00;;;22.04;58.30
38033;BME280;23841;48.524;1.342;2023-07-29T07:07:05;98695.44;;;22.03;58.50
38033;BME280;23841;48.524;1.342;2023-07-29T07:09:30;98687.44;;;22.01;58.32
38033;BME280;23841;48.524;1.342;2023-07-29T07:11:56;98696.28;;;22.03;58.33
38033;BME280;23841;48.524;1.342;2023-07-29T07:14:21;98698.00;;;22.04;58.35
38033;BME280;23841;48.524;1.342;2023-07-29T07:16:46;98692.72;;;22.03;58.16
38033;BME280;23841;48.524;1.342;2023-07-29T07:19:12;98696.28;;;22.03;58.58
38033;BME280;23841;48.524;1.342;2023-07-29T07:21:37;98684.63;;;22.03;58.46
38033;BME280;23841;48.524;1.342;2023-07-29T07:24:03;98697.28;;;22.02;58.31
38033;BME280;23841;48.524;1.342;2023-07-29T07:26:28;98698.13;;;22.03;58.49
38033;BME280;23841;48.524;1.342;2023-07-29T07:28:54;98699.09;;;22.02;58.17
38033;BME280;23841;48.524;1.342;2023-07-29T07:31:19;98693.69;;;22.02;58.13
38033;BME280;23841;48.524;1.342;2023-07-29T07:33:45;98697.41;;;22.01;58.01
38033;BME280;23841;48.524;1.342;2023-07-29T07:36:10;98700.00;;;22.02;58.31
38033;BME280;23841;48.524;1.342;2023-07-29T07:38:35;98702.69;;;22.02;58.34
38033;BME280;23841;48.524;1.342;2023-07-29T07:41:01;98711.66;;;22.03;58.66
38033;BME280;23841;48.524;1.342;2023-07-29T07:43:27;98708.22;;;22.01;58.79
38033;BME280;23841;48.524;1.342;2023-07-29T07:45:58;98705.53;;;22.01;58.61
38033;BME280;23841;48.524;1.342;2023-07-29T07:48:24;98709.06;;;22.01;58.59
38033;BME280;23841;48.524;1.342;2023-07-29T07:50:49;98714.47;;;22.01;58.43
38033;BME280;23841;48.524;1.342;2023-07-29T07:53:14;98715.34;;;22.02;58.13
38033;BME280;23841;48.524;1.342;2023-07-29T07:55:40;98709.06;;;22.01;58.39
38033;BME280;23841;48.524;1.342;2023-07-29T07:58:05;98716.22;;;22.02;58.50
38033;BME280;23841;48.524;1.342;2023-07-29T08:00:31;98709.06;;;22.01;58.54
38033;BME280;23841;48.524;1.342;2023-07-29T08:02:56;98703.78;;;21.99;58.71
38033;BME280;23841;48.524;1.342;2023-07-29T08:05:21;98703.66;;;22.01;58.19
38033;BME280;23841;48.524;1.342;2023-07-29T08:07:47;98692.00;;;22.01;58.44
38033;BME280;23841;48.524;1.342;2023-07-29T08:10:12;98693.81;;;22.00;58.37
38033;BME280;23841;48.524;1.342;2023-07-29T08:12:38;98697.41;;;22.01;58.43
38033;BME280;23841;48.524;1.342;2023-07-29T08:15:03;98687.44;;;22.01;58.52
38033;BME280;23841;48.524;1.342;2023-07-29T08:17:29;98692.84;;;22.01;58.26
38033;BME280;23841;48.524;1.342;2023-07-29T08:19:54;98692.84;;;22.01;58.32
38033;BME280;23841;48.524;1.342;2023-07-29T08:22:20;98699.09;;;22.02;58.18
38033;BME280;23841;48.524;1.342;2023-07-29T08:24:45;98702.81;;;22.01;58.56
38033;BME280;23841;48.524;1.342;2023-07-29T08:27:11;98706.38;;;22.01;58.50
38033;BME280;23841;48.524;1.342;2023-07-29T08:29:36;98701.81;;;22.02;58.53
38033;BME280;23841;48.524;1.342;2023-07-29T08:32:02;98704.53;;;22.02;58.37
38033;BME280;23841;48.524;1.342;2023-07-29T08:34:28;98706.38;;;22.01;58.38
38033;BME280;23841;48.524;1.342;2023-07-29T08:36:53;98709.06;;;22.01;58.10
38033;BME280;23841;48.524;1.342;2023-07-29T08:39:19;98698.25;;;22.01;58.60
38033;BME280;23841;48.524;1.342;2023-07-29T08:41:51;98700.84;;;22.03;58.67
38033;BME280;23841;48.524;1.342;2023-07-29T08:44:23;98702.69;;;22.02;58.48
38033;BME280;23841;48.524;1.342;2023-07-29T08:46:51;98698.25;;;22.01;58.50
38033;BME280;23841;48.524;1.342;2023-07-29T08:49:19;98701.81;;;22.02;58.46
38033;BME280;23841;48.524;1.342;2023-07-29T08:51:46;98686.81;;;21.97;58.49
38033;BME280;23841;48.524;1.342;2023-07-29T08:54:13;98694.59;;;22.02;58.40
38033;BME280;23841;48.524;1.342;2023-07-29T08:56:40;98691.88;;;22.02;58.46
38033;BME280;23841;48.524;1.342;2023-07-29T08:59:07;98685.47;;;22.03;58.42
38033;BME280;23841;48.524;1.342;2023-07-29T09:01:33;98691.00;;;22.02;58.40
38033;BME280;23841;48.524;1.342;2023-07-29T09:03:59;98685.47;;;22.03;58.49
38033;BME280;23841;48.524;1.342;2023-07-29T09:06:25;98683.63;;;22.04;58.68
38033;BME280;23841;48.524;1.342;2023-07-29T09:08:53;98692.59;;;22.04;59.15
38033;BME280;23841;48.524;1.342;2023-07-29T09:11:20;98689.19;;;22.02;59.01
38033;BME280;23841;48.524;1.342;2023-07-29T09:13:45;98690.88;;;22.03;58.77
38033;BME280;23841;48.524;1.342;2023-07-29T09:16:11;98681.91;;;22.03;58.74
38033;BME280;23841;48.524;1.342;2023-07-29T09:18:37;98682.75;;;22.03;58.71
38033;BME280;23841;48.524;1.342;2023-07-29T09:21:03;98685.47;;;22.03;58.93
38033;BME280;23841;48.524;1.342;2023-07-29T09:23:41;98692.59;;;22.04;59.00
38033;BME280;23841;48.524;1.342;2023-07-29T09:26:07;98683.63;;;22.04;58.83
38033;BME280;23841;48.524;1.342;2023-07-29T09:28:37;98683.63;;;22.04;58.74
38033;BME280;23841;48.524;1.342;2023-07-29T09:31:03;98679.09;;;22.04;59.04
38033;BME280;23841;48.524;1.342;2023-07-29T09:33:32;98695.19;;;22.06;59.13
38033;BME280;23841;48.524;1.342;2023-07-29T09:36:00;98688.06;;;22.05;59.22
38033;BME280;23841;48.524;1.342;2023-07-29T09:38:28;98683.53;;;22.05;59.01
38033;BME280;23841;48.524;1.342;2023-07-29T09:40:56;98689.78;;;22.06;58.88
38033;BME280;23841;48.524;1.342;2023-07-29T09:43:30;98686.22;;;22.05;58.93
38033;BME280;23841;48.524;1.342;2023-07-29T09:46:02;98687.19;;;22.04;59.06
38033;BME280;23841;48.524;1.342;2023-07-29T09:48:28;98696.06;;;22.06;58.80
38033;BME280;23841;48.524;1.342;2023-07-29T09:50:57;98690.66;;;22.06;58.95
38033;BME280;23841;48.524;1.342;2023-07-29T09:53:24;98691.50;;;22.07;58.80
38033;BME280;23841;48.524;1.342;2023-07-29T09:55:49;98701.47;;;22.06;59.05
38033;BME280;23841;48.524;1.342;2023-07-29T09:58:26;98689.66;;;22.07;58.73
38033;BME280;23841;48.524;1.342;2023-07-29T10:00:52;98684.50;;;22.04;58.74
38033;BME280;23841;48.524;1.342;2023-07-29T10:03:20;98680.69;;;22.07;58.78
38033;BME280;23841;48.524;1.342;2023-07-29T10:05:46;98682.41;;;22.08;58.82
38033;BME280;23841;48.524;1.342;2023-07-29T10:08:12;98688.69;;;22.08;58.88
38033;BME280;23841;48.524;1.342;2023-07-29T10:10:41;98696.91;;;22.07;58.93
38033;BME280;23841;48.524;1.342;2023-07-29T10:13:07;98701.22;;;22.09;58.59
38033;BME280;23841;48.524;1.342;2023-07-29T10:15:32;98705.78;;;22.09;58.86
38033;BME280;23841;48.524;1.342;2023-07-29T10:17:59;98702.19;;;22.08;59.13
38033;BME280;23841;48.524;1.342;2023-07-29T10:20:24;98701.22;;;22.09;59.29
38033;BME280;23841;48.524;1.342;2023-07-29T10:22:51;98694.84;;;22.10;59.23
38033;BME280;23841;48.524;1.342;2023-07-29T10:25:22;98692.13;;;22.10;59.20
38033;BME280;23841;48.524;1.342;2023-07-29T10:27:52;98681.31;;;22.10;59.02
38033;BME280;23841;48.524;1.342;2023-07-29T10:30:18;98690.16;;;22.12;59.31
38033;BME280;23841;48.524;1.342;2023-07-29T10:32:44;98690.91;;;22.14;59.28
38033;BME280;23841;48.524;1.342;2023-07-29T10:35:11;98682.78;;;22.14;59.28
38033;BME280;23841;48.524;1.342;2023-07-29T10:37:38;98685.38;;;22.16;59.38
38033;BME280;23841;48.524;1.342;2023-07-29T10:40:06;98686.22;;;22.16;59.87
38033;BME280;23841;48.524;1.342;2023-07-29T10:42:33;98681.66;;;22.17;60.10
38033;BME280;23841;48.524;1.342;2023-07-29T10:44:58;98681.56;;;22.19;60.41
38033;BME280;23841;48.524;1.342;2023-07-29T10:47:28;98673.47;;;22.19;60.47
38033;BME280;23841;48.524;1.342;2023-07-29T10:49:58;98677.84;;;22.20;60.27
38033;BME280;23841;48.524;1.342;2023-07-29T10:55:02;98674.94;;;22.23;60.65
38033;BME280;23841;48.524;1.342;2023-07-29T10:57:35;98682.03;;;22.24;60.24
38033;BME280;23841;48.524;1.342;2023-07-29T11:00:03;98678.50;;;22.23;60.58
38033;BME280;23841;48.524;1.342;2023-07-29T11:02:36;98681.19;;;22.23;60.59
38033;BME280;23841;48.524;1.342;2023-07-29T11:05:06;98683.78;;;22.25;60.66
38033;BME280;23841;48.524;1.342;2023-07-29T11:07:46;98684.63;;;22.25;60.60
38033;BME280;23841;48.524;1.342;2023-07-29T11:10:13;98690.91;;;22.26;60.46
38033;BME280;23841;48.524;1.342;2023-07-29T11:12:46;98687.31;;;22.25;60.63
38033;BME280;23841;48.524;1.342;2023-07-29T11:15:23;98692.66;;;22.27;60.60
38033;BME280;23841;48.524;1.342;2023-07-29T11:17:50;98681.81;;;22.27;60.52
38033;BME280;23841;48.524;1.342;2023-07-29T11:20:17;98684.53;;;22.27;60.51
38033;BME280;23841;48.524;1.342;2023-07-29T11:22:43;98675.53;;;22.26;60.51
38033;BME280;23841;48.524;1.342;2023-07-29T11:25:11;98663.88;;;22.26;60.58
38033;BME280;23841;48.524;1.342;2023-07-29T11:27:37;98673.59;;;22.28;60.71
38033;BME280;23841;48.524;1.342;2023-07-29T11:30:05;98668.91;;;22.30;60.55
38033;BME280;23841;48.524;1.342;2023-07-29T11:32:32;98663.47;;;22.30;60.12
38033;BME280;23841;48.524;1.342;2023-07-29T11:35:12;98667.78;;;22.33;60.27
38033;BME280;23841;48.524;1.342;2023-07-29T11:37:40;98665.09;;;22.33;60.33
38033;BME280;23841;48.524;1.342;2023-07-29T11:40:06;98661.44;;;22.34;60.34
38033;BME280;23841;48.524;1.342;2023-07-29T11:42:33;98668.53;;;22.35;60.55
38033;BME280;23841;48.524;1.342;2023-07-29T11:45:00;98670.28;;;22.36;60.55
38033;BME280;23841;48.524;1.342;2023-07-29T11:47:26;98663.13;;;22.35;60.86
38033;BME280;23841;48.524;1.342;2023-07-29T11:49:51;98666.72;;;22.36;61.42
38033;BME280;23841;48.524;1.342;2023-07-29T11:52:18;98670.28;;;22.36;61.93
38033;BME280;23841;48.524;1.342;2023-07-29T11:54:46;98664.88;;;22.36;61.57
38033;BME280;23841;48.524;1.342;2023-07-29T11:57:12;98657.72;;;22.35;61.72
38033;BME280;23841;48.524;1.342;2023-07-29T11:59:39;98650.34;;;22.37;61.22
38033;BME280;23841;48.524;1.342;2023-07-29T12:02:13;98650.09;;;22.40;60.90
38033;BME280;23841;48.524;1.342;2023-07-29T12:04:40;98645.56;;;22.41;60.76
38033;BME280;23841;48.524;1.342;2023-07-29T12:07:07;98641.00;;;22.41;61.29
38033;BME280;23841;48.524;1.342;2023-07-29T12:09:33;98640.88;;;22.43;60.75
38033;BME280;23841;48.524;1.342;2023-07-29T12:11:59;98654.28;;;22.44;61.29
38033;BME280;23841;48.524;1.342;2023-07-29T12:14:27;98650.47;;;22.47;61.29
38033;BME280;23841;48.524;1.342;2023-07-29T12:16:53;98659.56;;;22.46;60.90
38033;BME280;23841;48.524;1.342;2023-07-29T12:19:19;98662.16;;;22.47;61.55
38033;BME280;23841;48.524;1.342;2023-07-29T12:21:45;98652.34;;;22.46;61.32
38033;BME280;23841;48.524;1.342;2023-07-29T12:24:13;98655.75;;;22.48;61.46
38033;BME280;23841;48.524;1.342;2023-07-29T12:26:41;98649.50;;;22.48;61.78
38033;BME280;23841;48.524;1.342;2023-07-29T12:29:17;98650.34;;;22.48;61.31
38033;BME280;23841;48.524;1.342;2023-07-29T12:31:48;98645.78;;;22.49;61.74
38033;BME280;23841;48.524;1.342;2023-07-29T12:34:21;98650.34;;;22.48;62.23
38033;BME280;23841;48.524;1.342;2023-07-29T12:36:48;98649.38;;;22.49;61.62
38033;BME280;23841;48.524;1.342;2023-07-29T12:41:53;98643.69;;;22.53;61.70
38033;BME280;23841;48.524;1.342;2023-07-29T12:44:18;98639.03;;;22.55;61.41
38033;BME280;23841;48.524;1.342;2023-07-29T12:46:44;98636.34;;;22.55;61.78
38033;BME280;23841;48.524;1.342;2023-07-29T12:49:10;98632.63;;;22.56;61.52
38033;BME280;23841;48.524;1.342;2023-07-29T12:51:36;98628.09;;;22.56;61.75
38033;BME280;23841;48.524;1.342;2023-07-29T12:54:03;98630.66;;;22.58;61.55
38033;BME280;23841;48.524;1.342;2023-07-29T12:56:30;98621.53;;;22.59;61.80
38033;BME280;23841;48.524;1.342;2023-07-29T12:58:59;98624.97;;;22.61;61.63
38033;BME280;23841;48.524;1.342;2023-07-29T13:01:26;98630.41;;;22.61;61.79
38033;BME280;23841;48.524;1.342;2023-07-29T13:03:52;98626.72;;;22.62;61.74
38033;BME280;23841;48.524;1.342;2023-07-29T13:06:17;98622.16;;;22.62;61.83
38033;BME280;23841;48.524;1.342;2023-07-29T13:08:43;98623.00;;;22.63;62.06
38033;BME280;23841;48.524;1.342;2023-07-29T13:11:09;98621.03;;;22.65;61.83
38033;BME280;23841;48.524;1.342;2023-07-29T13:13:34;98621.03;;;22.65;61.83